Austin, TX (78724)

10:36 PM CST on December 17, 2014 (GMT -0600)
University Hills | Change Station
CLOSE
Current Station
Personal Weather Station
Location: Austin, TX
Elevation: 561 ft
Nearby Weather Stations

Elev 561 ft 30.31 °N, 97.68 °W | Updated 13 seconds ago

Overcast
Overcast
51.6 °F
Feels Like 51.6 °F
N
0.0
Wind Variable Wind from ENE
Gusts 4.0 mph

Today
High -- | Low -- °F
--% Chance of Precip.
Yesterday
High -- | Low -- °F
Precip. -- in
7:20 AM 5:32 PM
Waning Crescent, 17% visible
Pressure 30.10 in
Visibility 9.0 miles
Clouds Overcast 700 ft
Dew Point 50 °F
Humidity 95%
Rainfall 0.07 in
Snow Depth Not available.
UV 0 out of 12
Pollen 7.00 out of 12
Air Quality Not available.
Flu Activity Not available.
METAR KAUS 180353Z 03005KT 9SM OVC007 12/10 A3010 RMK AO2 SLP193 T01170100

More Conditions Fewer Conditions

Pressure 30.10 in
Visibility 9.0 miles
Clouds Overcast 700 ft
Dew Point 50 °F
Humidity 95%
Rainfall 0.07 in
Snow Depth Not available.
UV 0 out of 12
Pollen 7.00 out of 12
Air Quality Not available.
Flu Activity Not available.
METAR KAUS 180353Z 03005KT 9SM OVC007 12/10 A3010 RMK AO2 SLP193 T01170100

More Conditions Fewer Conditions

Nowcast | as of 9:23 PM CST on December 17, 2014

Through 11 PM...patchy light drizzle will move northeast across south central Texas. Spotty rainfall amounts of a few hundredths of an inch are possible. Patchy fog will continue to develop across the region with visibilities generally 3 to 5 miles. Motorists should exercise caution and slow down in areas of fog as visibilities may drop rapidly. Remember to use the low beam headlights in areas of fog.

×

10-Day Weather Forecast

Almanac

Astronomy

Dec. 17, 2014 Rise Set
Actual Time
Civil Twilight
Nautical Twilight
Astronomical Twilight
Moon
Length of Visible Light
Length of Day
Tomorrow will be .
, % of the Moon is Illuminated

Today's Extremes

State Highs State Lows

Community

WunderPhotos

Upload Photos

1,778,881 photos uploaded!

WunderBlogs® & News

Nearby

Air Quality

  Air Quality AQ Index Pollutant
Not available.

Snow Depth

Station Depth Elevation

Earthquake Activity

City Distance Mag. Time & Date
Minimum magnitude displayed is 2.5.

Coastal Water Temperatures

Place Temperature

Nearby Weather Stations